sensor_id;sensor_type;location;lat;lon;timestamp;pressure;altitude;pressure_sealevel;temperature;humidity
26563;BME280;14217;50.986;5.826;2023-07-08T00:00:56;100964.03;;;27.46;35.18
26563;BME280;14217;50.986;5.826;2023-07-08T00:05:59;100949.25;;;27.51;35.15
26563;BME280;14217;50.986;5.826;2023-07-08T00:11:01;100949.75;;;27.45;35.38
26563;BME280;14217;50.986;5.826;2023-07-08T00:16:03;100944.34;;;27.45;35.10
26563;BME280;14217;50.986;5.826;2023-07-08T00:21:16;100944.59;;;27.42;35.43
26563;BME280;14217;50.986;5.826;2023-07-08T00:26:21;100951.09;;;27.40;35.50
26563;BME280;14217;50.986;5.826;2023-07-08T00:31:25;100939.81;;;27.46;35.24
26563;BME280;14217;50.986;5.826;2023-07-08T00:36:28;100943.47;;;27.45;35.25
26563;BME280;14217;50.986;5.826;2023-07-08T00:41:33;100939.09;;;27.44;35.59
26563;BME280;14217;50.986;5.826;2023-07-08T00:46:55;100938.59;;;27.38;35.48
26563;BME280;14217;50.986;5.826;2023-07-08T00:57:24;100939.31;;;27.41;35.28
26563;BME280;14217;50.986;5.826;2023-07-08T01:02:27;100926.47;;;27.44;35.07
26563;BME280;14217;50.986;5.826;2023-07-08T01:07:30;100924.28;;;27.38;35.40
26563;BME280;14217;50.986;5.826;2023-07-08T01:12:38;100928.22;;;27.45;35.28
26563;BME280;14217;50.986;5.826;2023-07-08T01:17:43;100928.22;;;27.45;35.21
26563;BME280;14217;50.986;5.826;2023-07-08T01:22:45;100924.03;;;27.52;35.09
26563;BME280;14217;50.986;5.826;2023-07-08T01:27:51;100927.81;;;27.50;35.25
26563;BME280;14217;50.986;5.826;2023-07-08T01:32:59;100928.28;;;27.55;35.19
26563;BME280;14217;50.986;5.826;2023-07-08T01:38:05;100930.53;;;27.50;35.15
26563;BME280;14217;50.986;5.826;2023-07-08T01:43:11;100921.59;;;27.49;35.32
26563;BME280;14217;50.986;5.826;2023-07-08T01:48:15;100918.41;;;27.44;35.12
26563;BME280;14217;50.986;5.826;2023-07-08T01:53:22;100921.00;;;27.46;35.46
26563;BME280;14217;50.986;5.826;2023-07-08T01:58:24;100912.53;;;27.50;35.25
26563;BME280;14217;50.986;5.826;2023-07-08T02:03:27;100904.47;;;27.50;35.40
26563;BME280;14217;50.986;5.826;2023-07-08T02:08:29;100895.53;;;27.50;35.29
26563;BME280;14217;50.986;5.826;2023-07-08T02:13:32;100888.19;;;27.52;35.22
26563;BME280;14217;50.986;5.826;2023-07-08T02:18:34;100897.22;;;27.51;35.00
26563;BME280;14217;50.986;5.826;2023-07-08T02:23:35;100880.50;;;27.47;35.06
26563;BME280;14217;50.986;5.826;2023-07-08T02:28:37;100892.84;;;27.50;35.41
26563;BME280;14217;50.986;5.826;2023-07-08T02:33:39;100889.44;;;27.48;35.30
26563;BME280;14217;50.986;5.826;2023-07-08T02:38:41;100879.63;;;27.47;35.22
26563;BME280;14217;50.986;5.826;2023-07-08T02:43:43;100878.66;;;27.48;35.20
26563;BME280;14217;50.986;5.826;2023-07-08T02:48:45;100890.53;;;27.45;35.37
26563;BME280;14217;50.986;5.826;2023-07-08T02:53:49;100894.31;;;27.43;35.28
26563;BME280;14217;50.986;5.826;2023-07-08T02:58:51;100896.03;;;27.44;35.26
26563;BME280;14217;50.986;5.826;2023-07-08T03:03:53;100898.72;;;27.44;35.27
26563;BME280;14217;50.986;5.826;2023-07-08T03:09:00;100892.63;;;27.42;35.44
26563;BME280;14217;50.986;5.826;2023-07-08T03:14:02;100904.34;;;27.41;35.34
26563;BME280;14217;50.986;5.826;2023-07-08T03:19:04;100894.81;;;27.48;35.05
26563;BME280;14217;50.986;5.826;2023-07-08T03:24:10;100907.66;;;27.44;35.35
26563;BME280;14217;50.986;5.826;2023-07-08T03:29:17;100900.56;;;27.43;35.07
26563;BME280;14217;50.986;5.826;2023-07-08T03:34:19;100907.25;;;27.49;35.18
26563;BME280;14217;50.986;5.826;2023-07-08T03:39:23;100912.06;;;27.45;35.18
26563;BME280;14217;50.986;5.826;2023-07-08T03:44:25;100915.94;;;27.52;35.25
26563;BME280;14217;50.986;5.826;2023-07-08T03:49:27;100916.06;;;27.51;35.22
26563;BME280;14217;50.986;5.826;2023-07-08T03:54:29;100911.81;;;27.48;35.34
26563;BME280;14217;50.986;5.826;2023-07-08T03:59:31;100909.00;;;27.50;35.23
26563;BME280;14217;50.986;5.826;2023-07-08T04:04:33;100907.25;;;27.49;35.16
26563;BME280;14217;50.986;5.826;2023-07-08T04:09:36;100916.94;;;27.51;35.08
26563;BME280;14217;50.986;5.826;2023-07-08T04:14:38;100915.09;;;27.52;35.22
26563;BME280;14217;50.986;5.826;2023-07-08T04:19:44;100913.38;;;27.51;35.20
26563;BME280;14217;50.986;5.826;2023-07-08T04:24:46;100899.91;;;27.51;35.06
26563;BME280;14217;50.986;5.826;2023-07-08T04:29:48;100903.59;;;27.50;35.21
26563;BME280;14217;50.986;5.826;2023-07-08T04:34:52;100903.59;;;27.50;35.23
26563;BME280;14217;50.986;5.826;2023-07-08T04:39:54;100902.75;;;27.49;35.14
26563;BME280;14217;50.986;5.826;2023-07-08T04:44:56;100907.41;;;27.47;35.25
26563;BME280;14217;50.986;5.826;2023-07-08T04:49:58;100910.94;;;27.48;35.15
26563;BME280;14217;50.986;5.826;2023-07-08T04:55:00;100906.91;;;27.53;35.21
26563;BME280;14217;50.986;5.826;2023-07-08T05:00:02;100900.31;;;27.46;35.22
26563;BME280;14217;50.986;5.826;2023-07-08T05:05:04;100900.66;;;27.53;35.16
26563;BME280;14217;50.986;5.826;2023-07-08T05:10:06;100903.34;;;27.53;35.18
26563;BME280;14217;50.986;5.826;2023-07-08T05:15:09;100914.09;;;27.53;34.93
26563;BME280;14217;50.986;5.826;2023-07-08T05:20:13;100914.09;;;27.53;35.21
26563;BME280;14217;50.986;5.826;2023-07-08T05:25:18;100912.53;;;27.50;35.14
26563;BME280;14217;50.986;5.826;2023-07-08T05:30:20;100902.50;;;27.52;35.11
26563;BME280;14217;50.986;5.826;2023-07-08T05:35:22;100901.75;;;27.50;35.36
26563;BME280;14217;50.986;5.826;2023-07-08T05:40:26;100908.25;;;27.48;35.17
26563;BME280;14217;50.986;5.826;2023-07-08T05:45:28;100913.63;;;27.48;35.29
26563;BME280;14217;50.986;5.826;2023-07-08T05:50:30;100909.09;;;27.48;35.33
26563;BME280;14217;50.986;5.826;2023-07-08T05:55:33;100922.56;;;27.48;35.05
26563;BME280;14217;50.986;5.826;2023-07-08T06:00:35;100928.56;;;27.52;35.00
26563;BME280;14217;50.986;5.826;2023-07-08T06:05:39;100915.00;;;27.53;35.20
26563;BME280;14217;50.986;5.826;2023-07-08T06:10:43;100921.94;;;27.56;35.21
26563;BME280;14217;50.986;5.826;2023-07-08T06:15:46;100912.75;;;27.58;35.17
26563;BME280;14217;50.986;5.826;2023-07-08T06:20:55;100919.09;;;27.57;34.89
26563;BME280;14217;50.986;5.826;2023-07-08T06:25:58;100909.06;;;27.60;35.27
26563;BME280;14217;50.986;5.826;2023-07-08T06:31:00;100916.41;;;27.57;35.21
26563;BME280;14217;50.986;5.826;2023-07-08T06:36:02;100922.91;;;27.55;35.29
26563;BME280;14217;50.986;5.826;2023-07-08T06:41:04;100928.06;;;27.58;35.28
26563;BME280;14217;50.986;5.826;2023-07-08T06:46:06;100935.03;;;27.61;35.19
26563;BME280;14217;50.986;5.826;2023-07-08T06:51:08;100934.19;;;27.60;35.25
26563;BME280;14217;50.986;5.826;2023-07-08T06:56:10;100941.38;;;27.60;35.35
26563;BME280;14217;50.986;5.826;2023-07-08T07:01:12;100945.78;;;27.61;35.27
26563;BME280;14217;50.986;5.826;2023-07-08T07:06:14;100950.44;;;27.58;35.49
26563;BME280;14217;50.986;5.826;2023-07-08T07:11:16;100937.72;;;27.61;35.37
26563;BME280;14217;50.986;5.826;2023-07-08T07:16:18;100934.03;;;27.62;35.17
26563;BME280;14217;50.986;5.826;2023-07-08T07:21:20;100936.13;;;27.58;35.20
26563;BME280;14217;50.986;5.826;2023-07-08T07:26:22;100925.94;;;27.62;35.42
26563;BME280;14217;50.986;5.826;2023-07-08T07:31:25;100921.78;;;27.57;35.40
26563;BME280;14217;50.986;5.826;2023-07-08T07:36:28;100929.03;;;27.57;36.62
26563;BME280;14217;50.986;5.826;2023-07-08T07:41:30;100927.56;;;27.64;36.71
26563;BME280;14217;50.986;5.826;2023-07-08T07:46:32;100932.34;;;27.61;37.31
26563;BME280;14217;50.986;5.826;2023-07-08T07:51:35;100935.25;;;27.57;37.50
26563;BME280;14217;50.986;5.826;2023-07-08T07:56:37;100933.44;;;27.58;37.74
26563;BME280;14217;50.986;5.826;2023-07-08T08:01:39;100925.09;;;27.61;37.59
26563;BME280;14217;50.986;5.826;2023-07-08T08:06:42;100926.09;;;27.60;37.75
26563;BME280;14217;50.986;5.826;2023-07-08T08:11:44;100925.09;;;27.61;37.86
26563;BME280;14217;50.986;5.826;2023-07-08T08:16:47;100931.84;;;27.67;37.71
26563;BME280;14217;50.986;5.826;2023-07-08T08:21:49;100936.72;;;27.62;38.57
26563;BME280;14217;50.986;5.826;2023-07-08T08:26:51;100941.63;;;27.56;38.76
26563;BME280;14217;50.986;5.826;2023-07-08T08:31:53;100940.63;;;27.57;38.52
26563;BME280;14217;50.986;5.826;2023-07-08T08:36:56;100939.44;;;27.50;38.51
26563;BME280;14217;50.986;5.826;2023-07-08T08:41:58;100953.00;;;27.49;38.47
26563;BME280;14217;50.986;5.826;2023-07-08T08:47:27;100946.91;;;27.47;38.69
26563;BME280;14217;50.986;5.826;2023-07-08T08:52:33;100945.81;;;27.49;38.56
26563;BME280;14217;50.986;5.826;2023-07-08T08:57:43;100945.44;;;27.43;39.10
26563;BME280;14217;50.986;5.826;2023-07-08T09:02:59;100934.94;;;27.40;39.39
26563;BME280;14217;50.986;5.826;2023-07-08T09:08:04;100935.03;;;27.38;39.55
26563;BME280;14217;50.986;5.826;2023-07-08T09:13:14;100929.56;;;27.40;39.54
26563;BME280;14217;50.986;5.826;2023-07-08T09:18:27;100924.06;;;27.41;39.48
26563;BME280;14217;50.986;5.826;2023-07-08T09:23:32;100921.09;;;27.44;39.51
26563;BME280;14217;50.986;5.826;2023-07-08T09:28:43;100919.53;;;27.42;39.38
26563;BME280;14217;50.986;5.826;2023-07-08T09:33:45;100925.13;;;27.50;39.21
26563;BME280;14217;50.986;5.826;2023-07-08T09:38:48;100928.97;;;27.80;39.01
26563;BME280;14217;50.986;5.826;2023-07-08T09:44:03;100928.13;;;27.90;39.22
26563;BME280;14217;50.986;5.826;2023-07-08T09:49:22;100936.94;;;27.81;39.75
26563;BME280;14217;50.986;5.826;2023-07-08T09:54:26;100928.13;;;27.90;39.21
26563;BME280;14217;50.986;5.826;2023-07-08T09:59:31;100929.97;;;27.90;39.06
26563;BME280;14217;50.986;5.826;2023-07-08T10:04:33;100939.78;;;27.68;39.41
26563;BME280;14217;50.986;5.826;2023-07-08T10:09:36;100940.63;;;27.69;39.42
26563;BME280;14217;50.986;5.826;2023-07-08T10:14:50;100948.81;;;27.67;39.80
26563;BME280;14217;50.986;5.826;2023-07-08T10:19:54;100941.38;;;27.71;40.07
26563;BME280;14217;50.986;5.826;2023-07-08T10:25:19;100938.06;;;27.67;40.33
26563;BME280;14217;50.986;5.826;2023-07-08T10:30:27;100946.88;;;27.69;40.44
26563;BME280;14217;50.986;5.826;2023-07-08T10:40:54;100945.19;;;27.68;40.83
26563;BME280;14217;50.986;5.826;2023-07-08T10:51:17;100947.72;;;27.70;41.18
26563;BME280;14217;50.986;5.826;2023-07-08T10:56:36;100946.63;;;27.72;41.82
26563;BME280;14217;50.986;5.826;2023-07-08T11:12:21;100938.06;;;27.67;41.81
26563;BME280;14217;50.986;5.826;2023-07-08T11:17:30;100927.41;;;27.66;41.83
26563;BME280;14217;50.986;5.826;2023-07-08T11:22:40;100933.69;;;27.66;41.80
26563;BME280;14217;50.986;5.826;2023-07-08T11:27:46;100924.72;;;27.66;41.53
26563;BME280;14217;50.986;5.826;2023-07-08T11:32:56;100926.38;;;28.01;41.31
26563;BME280;14217;50.986;5.826;2023-07-08T11:38:01;100923.88;;;28.09;41.16
26563;BME280;14217;50.986;5.826;2023-07-08T11:43:05;100918.41;;;27.99;41.29
26563;BME280;14217;50.986;5.826;2023-07-08T11:48:13;100910.41;;;28.09;41.02
26563;BME280;14217;50.986;5.826;2023-07-08T11:58:50;100917.91;;;28.05;41.18
26563;BME280;14217;50.986;5.826;2023-07-08T12:09:38;100913.25;;;28.07;40.98
26563;BME280;14217;50.986;5.826;2023-07-08T12:14:40;100903.19;;;28.09;40.92
26563;BME280;14217;50.986;5.826;2023-07-08T12:19:43;100910.41;;;28.09;41.19
26563;BME280;14217;50.986;5.826;2023-07-08T12:24:46;100908.13;;;28.04;41.28
26563;BME280;14217;50.986;5.826;2023-07-08T12:29:48;100900.38;;;28.11;41.32
26563;BME280;14217;50.986;5.826;2023-07-08T12:34:51;100895.63;;;28.03;41.61
26563;BME280;14217;50.986;5.826;2023-07-08T12:39:55;100896.22;;;28.07;41.43
26563;BME280;14217;50.986;5.826;2023-07-08T12:44:58;100896.84;;;28.10;41.40
26563;BME280;14217;50.986;5.826;2023-07-08T12:50:00;100893.13;;;28.11;41.43
26563;BME280;14217;50.986;5.826;2023-07-08T12:55:02;100901.09;;;28.13;41.36
26563;BME280;14217;50.986;5.826;2023-07-08T13:00:05;100895.00;;;28.11;41.36
26563;BME280;14217;50.986;5.826;2023-07-08T13:05:07;100896.56;;;28.13;41.14
26563;BME280;14217;50.986;5.826;2023-07-08T13:10:21;100897.69;;;28.11;41.03
26563;BME280;14217;50.986;5.826;2023-07-08T13:15:30;100894.72;;;28.14;40.92
26563;BME280;14217;50.986;5.826;2023-07-08T13:20:34;100895.72;;;28.13;40.74
26563;BME280;14217;50.986;5.826;2023-07-08T13:25:37;100889.94;;;28.17;40.91
26563;BME280;14217;50.986;5.826;2023-07-08T13:30:40;100891.16;;;28.13;41.00
26563;BME280;14217;50.986;5.826;2023-07-08T13:35:51;100898.13;;;28.16;40.65
26563;BME280;14217;50.986;5.826;2023-07-08T13:40:58;100897.16;;;28.17;40.97
26563;BME280;14217;50.986;5.826;2023-07-08T13:46:01;100899.84;;;28.17;40.71
26563;BME280;14217;50.986;5.826;2023-07-08T14:01:22;100906.81;;;28.20;40.77
26563;BME280;14217;50.986;5.826;2023-07-08T14:06:27;100902.78;;;28.14;40.69
26563;BME280;14217;50.986;5.826;2023-07-08T14:11:30;100913.31;;;28.17;40.94
26563;BME280;14217;50.986;5.826;2023-07-08T14:16:34;100918.09;;;28.13;41.08
26563;BME280;14217;50.986;5.826;2023-07-08T14:21:37;100916.75;;;28.19;40.84
26563;BME280;14217;50.986;5.826;2023-07-08T14:26:48;100924.47;;;28.12;40.87
26563;BME280;14217;50.986;5.826;2023-07-08T14:31:50;100927.03;;;28.14;40.86
26563;BME280;14217;50.986;5.826;2023-07-08T14:36:52;100923.94;;;28.18;40.87
26563;BME280;14217;50.986;5.826;2023-07-08T14:41:54;100925.78;;;28.18;40.79
26563;BME280;14217;50.986;5.826;2023-07-08T14:46:56;100929.34;;;28.18;40.85
26563;BME280;14217;50.986;5.826;2023-07-08T14:52:00;100924.94;;;28.17;40.92
26563;BME280;14217;50.986;5.826;2023-07-08T14:57:02;100938.88;;;28.23;41.02
26563;BME280;14217;50.986;5.826;2023-07-08T15:02:18;100938.34;;;28.29;40.44
26563;BME280;14217;50.986;5.826;2023-07-08T15:07:20;100939.69;;;28.34;40.66
26563;BME280;14217;50.986;5.826;2023-07-08T15:12:23;100942.78;;;28.30;40.74
26563;BME280;14217;50.986;5.826;2023-07-08T15:17:24;100942.63;;;28.31;40.87
26563;BME280;14217;50.986;5.826;2023-07-08T15:22:27;100951.72;;;28.30;40.98
26563;BME280;14217;50.986;5.826;2023-07-08T15:27:29;100951.81;;;28.29;41.11
26563;BME280;14217;50.986;5.826;2023-07-08T15:32:31;100954.28;;;28.32;41.10
26563;BME280;14217;50.986;5.826;2023-07-08T15:37:35;100954.84;;;28.35;41.34
26563;BME280;14217;50.986;5.826;2023-07-08T15:42:37;100948.88;;;28.32;41.23
26563;BME280;14217;50.986;5.826;2023-07-08T15:47:41;100944.72;;;28.07;42.41
26563;BME280;14217;50.986;5.826;2023-07-08T15:52:43;100935.19;;;28.03;42.34
26563;BME280;14217;50.986;5.826;2023-07-08T15:57:51;100938.72;;;28.03;42.67
26563;BME280;14217;50.986;5.826;2023-07-08T16:02:58;100940.28;;;28.38;41.78
26563;BME280;14217;50.986;5.826;2023-07-08T16:08:01;100943.78;;;28.50;41.49
26563;BME280;14217;50.986;5.826;2023-07-08T16:13:05;100948.06;;;28.52;41.26
26563;BME280;14217;50.986;5.826;2023-07-08T16:18:10;100938.41;;;28.50;41.27
26563;BME280;14217;50.986;5.826;2023-07-08T16:23:13;100933.00;;;28.50;41.21
26563;BME280;14217;50.986;5.826;2023-07-08T16:28:27;100930.31;;;28.50;40.98
26563;BME280;14217;50.986;5.826;2023-07-08T16:33:30;100932.03;;;28.51;41.06
26563;BME280;14217;50.986;5.826;2023-07-08T16:38:32;100934.34;;;28.55;41.02
26563;BME280;14217;50.986;5.826;2023-07-08T16:43:34;100930.69;;;28.45;41.12
26563;BME280;14217;50.986;5.826;2023-07-08T16:48:36;100932.03;;;28.51;41.18
26563;BME280;14217;50.986;5.826;2023-07-08T16:53:40;100937.44;;;28.51;41.15
26563;BME280;14217;50.986;5.826;2023-07-08T16:58:42;100934.94;;;28.48;41.02
26563;BME280;14217;50.986;5.826;2023-07-08T17:03:44;100938.28;;;28.51;40.94
26563;BME280;14217;50.986;5.826;2023-07-08T17:08:46;100937.91;;;28.45;41.25
26563;BME280;14217;50.986;5.826;2023-07-08T17:13:49;100934.00;;;28.49;41.24
26563;BME280;14217;50.986;5.826;2023-07-08T17:18:53;100930.06;;;28.53;40.93
26563;BME280;14217;50.986;5.826;2023-07-08T17:23:57;100929.47;;;28.49;41.11
26563;BME280;14217;50.986;5.826;2023-07-08T17:28:59;100930.91;;;28.53;41.14
26563;BME280;14217;50.986;5.826;2023-07-08T17:34:02;100932.16;;;28.49;41.03
26563;BME280;14217;50.986;5.826;2023-07-08T17:39:04;100928.81;;;28.57;40.75
26563;BME280;14217;50.986;5.826;2023-07-08T17:44:06;100926.66;;;28.51;40.63
26563;BME280;14217;50.986;5.826;2023-07-08T17:49:11;100936.91;;;28.57;40.58
26563;BME280;14217;50.986;5.826;2023-07-08T17:54:14;100937.03;;;28.55;40.33
26563;BME280;14217;50.986;5.826;2023-07-08T17:59:20;100928.66;;;28.58;40.30
26563;BME280;14217;50.986;5.826;2023-07-08T18:04:23;100936.09;;;28.66;40.54
26563;BME280;14217;50.986;5.826;2023-07-08T18:09:27;100937.75;;;28.57;41.20
26563;BME280;14217;50.986;5.826;2023-07-08T18:14:29;100943.16;;;28.57;40.98
26563;BME280;14217;50.986;5.826;2023-07-08T18:19:32;100953.09;;;28.57;40.96
26563;BME280;14217;50.986;5.826;2023-07-08T18:24:34;100966.19;;;28.50;40.90
26563;BME280;14217;50.986;5.826;2023-07-08T18:29:36;100976.63;;;28.55;40.67
26563;BME280;14217;50.986;5.826;2023-07-08T18:34:38;100980.03;;;28.57;40.61
26563;BME280;14217;50.986;5.826;2023-07-08T18:39:40;100984.44;;;28.58;40.35
26563;BME280;14217;50.986;5.826;2023-07-08T18:44:41;100994.03;;;28.51;40.95
26563;BME280;14217;50.986;5.826;2023-07-08T18:49:43;101000.06;;;28.64;40.54
26563;BME280;14217;50.986;5.826;2023-07-08T18:54:45;101007.44;;;28.62;40.66
26563;BME280;14217;50.986;5.826;2023-07-08T18:59:48;101010.41;;;28.59;40.53
26563;BME280;14217;50.986;5.826;2023-07-08T19:04:50;101011.00;;;28.63;40.41
26563;BME280;14217;50.986;5.826;2023-07-08T19:09:52;101008.03;;;28.66;40.39
26563;BME280;14217;50.986;5.826;2023-07-08T19:14:55;101006.31;;;28.65;40.26
26563;BME280;14217;50.986;5.826;2023-07-08T19:19:57;101009.16;;;28.63;40.23
26563;BME280;14217;50.986;5.826;2023-07-08T19:25:00;101006.59;;;28.62;40.08
26563;BME280;14217;50.986;5.826;2023-07-08T19:30:02;101008.28;;;28.63;39.91
26563;BME280;14217;50.986;5.826;2023-07-08T19:35:04;101012.97;;;28.61;40.05
26563;BME280;14217;50.986;5.826;2023-07-08T19:40:10;101010.00;;;28.64;39.95
26563;BME280;14217;50.986;5.826;2023-07-08T19:45:24;101008.16;;;28.64;39.78
26563;BME280;14217;50.986;5.826;2023-07-08T19:50:30;101016.91;;;28.56;41.39
26563;BME280;14217;50.986;5.826;2023-07-08T19:55:34;101032.31;;;28.66;41.64
26563;BME280;14217;50.986;5.826;2023-07-08T20:00:37;101019.47;;;28.58;41.82
26563;BME280;14217;50.986;5.826;2023-07-08T20:05:40;101030.16;;;28.48;38.71
26563;BME280;14217;50.986;5.826;2023-07-08T20:10:42;101028.56;;;28.46;36.48
26563;BME280;14217;50.986;5.826;2023-07-08T20:15:45;101034.84;;;28.35;36.50
26563;BME280;14217;50.986;5.826;2023-07-08T20:20:47;101038.00;;;28.51;37.65
26563;BME280;14217;50.986;5.826;2023-07-08T20:25:49;101052.94;;;28.55;37.51
26563;BME280;14217;50.986;5.826;2023-07-08T20:30:51;101043.00;;;28.56;37.53
26563;BME280;14217;50.986;5.826;2023-07-08T20:35:53;101069.72;;;28.59;37.52
26563;BME280;14217;50.986;5.826;2023-07-08T20:40:55;101072.91;;;28.42;33.59
26563;BME280;14217;50.986;5.826;2023-07-08T20:45:59;101071.31;;;28.50;36.38
26563;BME280;14217;50.986;5.826;2023-07-08T20:51:02;101077.19;;;28.55;36.44
26563;BME280;14217;50.986;5.826;2023-07-08T20:56:14;101086.03;;;28.57;36.22
26563;BME280;14217;50.986;5.826;2023-07-08T21:01:17;101079.63;;;28.58;36.13
26563;BME280;14217;50.986;5.826;2023-07-08T21:06:27;101075.13;;;28.59;36.31
26563;BME280;14217;50.986;5.826;2023-07-08T21:11:33;101081.09;;;28.63;36.18
26563;BME280;14217;50.986;5.826;2023-07-08T21:16:35;101080.34;;;28.61;36.59
26563;BME280;14217;50.986;5.826;2023-07-08T21:21:38;101075.97;;;28.60;36.51
26563;BME280;14217;50.986;5.826;2023-07-08T21:26:41;101083.94;;;28.61;36.75
26563;BME280;14217;50.986;5.826;2023-07-08T21:31:44;101091.41;;;28.57;37.05
26563;BME280;14217;50.986;5.826;2023-07-08T21:36:46;101086.47;;;28.63;36.72
26563;BME280;14217;50.986;5.826;2023-07-08T21:41:49;101083.78;;;28.63;36.83
26563;BME280;14217;50.986;5.826;2023-07-08T21:46:51;101063.94;;;28.64;37.02
26563;BME280;14217;50.986;5.826;2023-07-08T21:51:53;101080.84;;;28.66;36.92
26563;BME280;14217;50.986;5.826;2023-07-08T21:56:55;101082.81;;;28.64;36.95
26563;BME280;14217;50.986;5.826;2023-07-08T22:01:57;101079.00;;;28.66;36.91
26563;BME280;14217;50.986;5.826;2023-07-08T22:06:59;101076.41;;;28.65;36.93
26563;BME280;14217;50.986;5.826;2023-07-08T22:12:03;101089.91;;;28.65;36.93
26563;BME280;14217;50.986;5.826;2023-07-08T22:17:14;101095.44;;;28.63;36.79
26563;BME280;14217;50.986;5.826;2023-07-08T22:22:19;101093.59;;;28.64;36.96
26563;BME280;14217;50.986;5.826;2023-07-08T22:27:22;101095.28;;;28.65;36.91
26563;BME280;14217;50.986;5.826;2023-07-08T22:32:24;101096.03;;;28.67;36.89
26563;BME280;14217;50.986;5.826;2023-07-08T22:37:26;101094.06;;;28.69;36.96
26563;BME280;14217;50.986;5.826;2023-07-08T22:42:28;101096.03;;;28.67;37.07
26563;BME280;14217;50.986;5.826;2023-07-08T22:47:30;101104.00;;;28.68;36.91
26563;BME280;14217;50.986;5.826;2023-07-08T22:52:34;101095.06;;;28.68;36.70
26563;BME280;14217;50.986;5.826;2023-07-08T22:57:38;101100.28;;;28.69;36.78
26563;BME280;14217;50.986;5.826;2023-07-08T23:02:40;101100.28;;;28.69;36.97
26563;BME280;14217;50.986;5.826;2023-07-08T23:07:42;101107.41;;;28.70;36.74
26563;BME280;14217;50.986;5.826;2023-07-08T23:12:44;101104.59;;;28.72;36.96
26563;BME280;14217;50.986;5.826;2023-07-08T23:17:46;101108.25;;;28.71;36.82
26563;BME280;14217;50.986;5.826;2023-07-08T23:22:48;101109.25;;;28.70;36.79
26563;BME280;14217;50.986;5.826;2023-07-08T23:27:50;101109.09;;;28.71;36.99
26563;BME280;14217;50.986;5.826;2023-07-08T23:32:52;101101.03;;;28.71;36.94
26563;BME280;14217;50.986;5.826;2023-07-08T23:37:54;101093.53;;;28.75;36.91
26563;BME280;14217;50.986;5.826;2023-07-08T23:42:59;101100.16;;;28.71;36.83
26563;BME280;14217;50.986;5.826;2023-07-08T23:48:01;101096.50;;;28.72;37.03
26563;BME280;14217;50.986;5.826;2023-07-08T23:53:02;101102.88;;;28.71;37.00
26563;BME280;14217;50.986;5.826;2023-07-08T23:58:06;101100.91;;;28.73;37.03
